Top Airports Right Now

Filter: All Africa Asia Europe North America Oceania South America

# ICAO Airport Country Why Runway Details
1 PASN St Paul Island Airport Flag of United States
6500
1981
042112Z AUTO 29032G40KT 3SM -SN BR SCT011 OVC019 01/00 A2924 RMK AO2 PK WND 28040/2104 P0000 T00110000 TSNO $
2 CYRT Rankin Inlet Airport Flag of Canada
6000
1829
042112Z CCA 03022G27KT 3SM -SN BLSN BKN084 M23/M25 A2969 RMK AS7 SLP062
3 UHMA Ugolny Yuri Ryktheu Airport Flag of Russian Federation
11483
3500
042112Z 28014G19MPS 4100 1000N BLSN FEW010 M11/M13 Q0983 R01/990540 TEMPO 5000 BLSN RMK TDZ R01/28014G19MPS END R01/28013G15MPS QFE734/0978
4 CYIO Pond Inlet Airport Flag of Canada
4000
1219
042112Z AUTO 06023G32KT 1SM -SN BLSN FEW009 SCT076 BKN091 OVC120 M16/M20 A3007 RMK VIS VRB 3/4-2 1/2 SLP193
5 KBLU Blue Canyon Nyack Airport Flag of United States
3300
1006
042112Z AUTO 18016G23KT 2SM BR OVC002 00/00 A3002 RMK AO2 UPE2056SNB2056E2057 P0000 T00000000 $
6 UERR Mirny Airport Flag of Russian Federation
9187
2800
042112Z 28010G15MPS 4000 -SHSN DRSN SCT023CB M14/M16 Q0990 R25/390231 NOSIG RMK QFE712/0949
7 PFNO Robert (Bob) Curtis Memorial Airport Flag of United States
4000
1219
042012Z AUTO 10029G35KT 10SM CLR 02/M02 A2979 RMK AO2 PK WND 10038/2046 SLP170 T00171022 58026 FZRANO
8 K96D Walhalla Municipal Airport Flag of United States
3400
1036
042012Z AUTO 29018G25KT 10SM BKN110 M01/M09 A2955 RMK AO2
9 CYQW North Battleford Airport Flag of Canada
5000
1524
042112Z AUTO 30025G32KT 6SM HZ SCT055 M04/M10 A2977 RMK SLP115
10 EDDP Leipzig/Halle Airport Flag of Germany
11811
3600
042012Z AUTO 04011KT 0700 0500 R08R/1200N R08L/1600N FG BKN002 01/01 Q1016 NOSIG
11 KMEV Minden-Tahoe Airport Flag of United States
7400
2256
042012Z AUTO 23018G26KT 10SM FEW060 06/M00 A2995 RMK AO2
12 CYNA Natashquan Airport Flag of Canada
4494
1370
042112Z AUTO 24017G30KT 9SM OVC019 00/M02 A2975 RMK SLP075
13 EDDE Erfurt Airport Flag of Germany
8530
2600
042012Z AUTO 03005KT 0250 R27/0300N -FZDZ FZFG VV002 M00/M00 Q1015 NOSIG
14 EDDF Frankfurt Airport Flag of Germany
13123
4000
042012Z AUTO 04009KT 9999 BKN020 03/01 Q1014 NOSIG
15 KTIF Thomas County Airport Flag of United States
3600
1097
042012Z AUTO 19015G19KT 10SM CLR 10/M10 A2993 RMK AO2 T01021096
16 PAGL Golovin Airport Flag of United States
4000
1219
042012Z AUTO 12024G29KT 10SM BKN075 OVC090 01/M02 A2964 RMK AO2 PK WND 12037/2041 PRESFR SLP030 T00111022 56029 PWINO FZRANO $
17 PAOU Nelson Lagoon Airport Flag of United States
4000
1219
042012Z AUTO 18025G30KT 10SM FEW029 SCT038 OVC049 06/03 A2965 RMK AO2 PK WND 18038/2037 RAE56 SLP040 6//// T00560033 53026 PNO $
18 CYCY Clyde River Airport Flag of Canada
3500
1067
042112Z AUTO 31028G33KT 1/2SM SN BLSN M15/M17 A2990 RMK CLD MISG ICE MISG SLP129
19 CYKY Kindersley Airport Flag of Canada
3507
1069
042112Z 32019G32KT 15SM DRSN SCT160 M04/M08 A2982 RMK AC4 SLP145
20 CYPY Fort Chipewyan Airport Flag of Canada
5000
1524
042112Z AUTO 34016G22KT 310V020 4SM -SN SCT055 OVC075 M17/M22 A3003 RMK PRESRR SLP199
21 PAPN Pilot Point Airport Flag of United States
3280
1000
042012Z AUTO 14029G37KT 10SM BKN065 OVC080 06/03 A2987 RMK AO2 PK WND 14037/2056 SLP116 T00560028 58031
22 EBBR Brussels Airport Flag of Belgium
11936
3638
042012Z 04003KT 2000 -DZ BR BKN003 01/M00 Q1017 NOSIG
23 CYMM Fort McMurray Airport Flag of Canada
7503
2287
042112Z AUTO 33020G29KT 9SM SCT044 M11/M19 A2995 RMK SLP177
24 KMMH Mammoth Yosemite Airport Flag of United States
7000
2134
042012Z AUTO 22019G27KT 10SM SCT033 04/M09 A3002 RMK AO2
25 KTVF Thief River Falls Regional Airport Flag of United States
6503
1982
042012Z AUTO 25015G22KT 10SM OVC090 M03/M08 A2961 RMK AO2 SLP050 T10331078 56040 FZRANO
26 PANI Aniak Airport Flag of United States
6200
1890
042012Z AUTO 15039G54KT 10SM CLR 04/M02 A2980 RMK AO2 PK WND 14055/2022 SLP085 T00391022 58030 $
27 KOVL Olivia Regional Airport Flag of United States
3498
1066
042012Z AUTO 24015G19KT 10SM CLR 04/M07 A2987 RMK AO2
28 KAXX Angel Fire Airport Flag of United States
8900
2713
042012Z AUTO 26016G23KT 10SM SCT034 SCT042 06/02 A3019 RMK AO2 T00640019
29 CYUT Naujaat Airport Flag of Canada
3400
1036
042112Z 35033G42KT 1/4SM BLSN OVC003 M27/M30 A2978 RMK SC8 LAST STFD OBS/NXT 051300Z SLP090
30 KAKO Colorado Plains Regional Airport Flag of United States
7000
2134
042012Z AUTO 19017G24KT 10SM CLR 12/M07 A2995 RMK AO2 SLP140 T01171072 57044 $
  • Windy  
  • Gusting Wind  
  • Crosswind  
  • Reduced Sight  
  • Runway Visual Range  
  • Low Ceiling  
  • Foggy  
  • Heavy Rain  
  • Heavy Snow  
  • Thunderstorm  
  • VATSIM ATC Online  
  • VATSIM Event Ongoing  
  • VATSIM Popular Airport